Time;durP1;ratioP1;P1;durP2;ratioP2;P2;SDS_P1;SDS_P2;PMS_P1;PMS_P2;Temp;Humidity;BMP_temperature;BMP_pressure;BME280_temperature;BME280_humidity;BME280_pressure;Samples;Min_cycle;Max_cycle;Signal;HPM_P1;HPM_P2
2023/06/22 00:02:18;;;;;;;12.20;8.15;;;;;;;;;;5059550;28;20090;-64
2023/06/22 00:04:43;;;;;;;9.27;7.88;;;;;;;;;;5062065;28;20249;-62
2023/06/22 00:07:09;;;;;;;11.00;7.03;;;;;;;;;;5055839;28;20392;-64
2023/06/22 00:09:34;;;;;;;10.50;7.40;;;;;;;;;;5059377;28;20032;-64
2023/06/22 00:11:59;;;;;;;10.30;7.40;;;;;;;;;;5040255;28;20040;-68
2023/06/22 00:14:24;;;;;;;11.73;7.70;;;;;;;;;;5066615;28;20851;-68
2023/06/22 00:16:54;;;;;;;10.23;7.43;;;;;;;;;;5066244;28;20413;-67
2023/06/22 00:19:21;;;;;;;9.30;7.20;;;;;;;;;;5062096;28;20067;-64
2023/06/22 00:21:47;;;;;;;10.10;7.45;;;;;;;;;;5048499;28;20060;-67
2023/06/22 00:24:12;;;;;;;10.07;7.40;;;;;;;;;;5059839;28;20507;-64
2023/06/22 00:26:37;;;;;;;9.35;7.65;;;;;;;;;;5065626;28;20037;-68
2023/06/22 00:29:02;;;;;;;9.93;6.93;;;;;;;;;;5066112;28;20127;-67
2023/06/22 00:31:28;;;;;;;8.70;7.03;;;;;;;;;;5048100;28;20113;-68
2023/06/22 00:33:53;;;;;;;10.07;7.25;;;;;;;;;;5054536;28;20278;-68
2023/06/22 00:36:19;;;;;;;8.43;7.20;;;;;;;;;;5060617;28;20578;-65
2023/06/22 00:38:44;;;;;;;9.65;7.53;;;;;;;;;;5055055;28;20517;-67
2023/06/22 00:41:09;;;;;;;8.80;7.07;;;;;;;;;;5067512;28;20367;-68
2023/06/22 00:43:34;;;;;;;11.48;7.10;;;;;;;;;;5059024;28;20275;-68
2023/06/22 00:46:00;;;;;;;12.75;7.75;;;;;;;;;;5052719;28;20044;-67
2023/06/22 00:48:25;;;;;;;8.50;7.10;;;;;;;;;;5054352;28;20511;-69
2023/06/22 00:50:51;;;;;;;8.03;6.93;;;;;;;;;;5063859;28;20430;-67
2023/06/22 00:53:17;;;;;;;10.25;7.00;;;;;;;;;;5061567;28;20568;-67
2023/06/22 00:55:44;;;;;;;9.57;7.18;;;;;;;;;;5059340;28;20503;-68
2023/06/22 00:58:10;;;;;;;10.45;7.47;;;;;;;;;;5039906;28;20048;-68
2023/06/22 01:00:35;;;;;;;9.60;7.15;;;;;;;;;;5061810;28;20170;-68
2023/06/22 01:03:01;;;;;;;9.18;7.30;;;;;;;;;;5052586;28;20642;-67
2023/06/22 01:05:30;;;;;;;11.93;7.50;;;;;;;;;;5040988;28;20025;-67
2023/06/22 01:08:01;;;;;;;11.50;7.37;;;;;;;;;;5031728;28;20520;-65
2023/06/22 01:10:41;;;;;;;10.82;7.28;;;;;;;;;;5057712;28;20108;-64
2023/06/22 01:13:29;;;;;;;8.48;6.70;;;;;;;;;;5044118;28;20047;-65
2023/06/22 01:16:02;;;;;;;8.27;7.45;;;;;;;;;;5051440;28;20064;-67
2023/06/22 01:18:28;;;;;;;10.38;7.32;;;;;;;;;;5056897;28;20127;-66
2023/06/22 01:20:53;;;;;;;9.40;7.22;;;;;;;;;;5048414;28;20059;-67
2023/06/22 01:23:25;;;;;;;11.70;7.95;;;;;;;;;;5056531;28;20116;-66
2023/06/22 01:25:57;;;;;;;10.95;7.65;;;;;;;;;;5062619;28;20127;-63
2023/06/22 01:28:31;;;;;;;10.27;7.85;;;;;;;;;;5038590;28;20024;-68
2023/06/22 01:31:05;;;;;;;10.27;7.45;;;;;;;;;;5059772;28;20119;-68
2023/06/22 01:33:31;;;;;;;10.38;7.65;;;;;;;;;;5042004;28;20099;-69
2023/06/22 01:35:56;;;;;;;9.73;7.45;;;;;;;;;;5061371;28;20032;-68
2023/06/22 01:38:22;;;;;;;8.80;6.70;;;;;;;;;;5063323;28;20491;-66
2023/06/22 01:40:47;;;;;;;10.05;7.50;;;;;;;;;;5039973;28;20704;-68
2023/06/22 01:43:13;;;;;;;8.55;6.93;;;;;;;;;;5045565;28;20021;-67
2023/06/22 01:45:38;;;;;;;11.77;7.40;;;;;;;;;;5056899;28;20110;-67
2023/06/22 01:48:03;;;;;;;9.25;7.10;;;;;;;;;;5058758;28;20045;-68
2023/06/22 01:50:28;;;;;;;8.98;7.65;;;;;;;;;;5060887;28;20910;-66
2023/06/22 01:52:54;;;;;;;8.60;7.67;;;;;;;;;;5042730;28;20029;-66
2023/06/22 01:55:19;;;;;;;10.87;7.20;;;;;;;;;;5061192;28;20044;-68
2023/06/22 01:57:44;;;;;;;10.53;7.67;;;;;;;;;;5045792;28;20303;-64
2023/06/22 02:00:11;;;;;;;9.13;7.33;;;;;;;;;;5054938;28;21330;-69
2023/06/22 02:02:37;;;;;;;8.88;7.57;;;;;;;;;;5046996;28;20279;-67
2023/06/22 02:05:03;;;;;;;11.10;8.15;;;;;;;;;;5045090;28;20040;-63
2023/06/22 02:07:29;;;;;;;10.70;7.13;;;;;;;;;;5064157;28;20032;-68
2023/06/22 02:09:55;;;;;;;10.95;7.35;;;;;;;;;;5046324;28;20079;-66
2023/06/22 02:12:21;;;;;;;10.83;7.97;;;;;;;;;;5058251;28;20479;-66
2023/06/22 02:14:46;;;;;;;8.13;7.32;;;;;;;;;;5062799;28;20302;-69
2023/06/22 02:17:11;;;;;;;9.03;7.43;;;;;;;;;;5046747;28;20511;-67
2023/06/22 02:19:37;;;;;;;9.50;7.40;;;;;;;;;;5037604;28;20506;-66
2023/06/22 02:22:03;;;;;;;11.32;8.10;;;;;;;;;;5056707;28;20033;-66
2023/06/22 02:24:30;;;;;;;9.95;7.10;;;;;;;;;;5062118;28;20032;-67
2023/06/22 02:26:56;;;;;;;11.60;7.32;;;;;;;;;;5052834;28;20093;-63
2023/06/22 02:29:21;;;;;;;10.93;7.40;;;;;;;;;;5044341;28;20041;-67
2023/06/22 02:31:46;;;;;;;10.43;7.80;;;;;;;;;;5061809;28;20036;-69
2023/06/22 02:34:16;;;;;;;11.55;8.05;;;;;;;;;;5064198;28;20760;-63
2023/06/22 02:36:50;;;;;;;10.98;8.32;;;;;;;;;;5063827;28;20048;-67
2023/06/22 02:39:22;;;;;;;10.20;7.97;;;;;;;;;;5029936;28;20059;-64
2023/06/22 02:41:51;;;;;;;8.70;7.55;;;;;;;;;;5066481;28;20120;-66
2023/06/22 02:44:16;;;;;;;9.40;7.53;;;;;;;;;;5057854;28;20059;-66
2023/06/22 02:46:41;;;;;;;10.32;7.50;;;;;;;;;;5063614;28;20447;-67
2023/06/22 02:49:07;;;;;;;10.23;7.20;;;;;;;;;;5057189;28;20033;-63
2023/06/22 02:51:33;;;;;;;11.55;8.13;;;;;;;;;;5056831;28;20036;-62
2023/06/22 02:53:59;;;;;;;9.88;7.70;;;;;;;;;;5054244;28;20028;-65
2023/06/22 02:56:24;;;;;;;12.50;7.90;;;;;;;;;;5061345;28;20044;-67
2023/06/22 02:58:50;;;;;;;10.55;7.40;;;;;;;;;;5058047;28;20329;-67
2023/06/22 03:01:15;;;;;;;8.63;7.50;;;;;;;;;;5054190;28;20036;-67
2023/06/22 03:03:40;;;;;;;10.20;7.60;;;;;;;;;;5056503;28;20109;-66
2023/06/22 03:06:06;;;;;;;10.07;7.18;;;;;;;;;;5060921;28;20281;-64
2023/06/22 03:08:31;;;;;;;9.33;7.20;;;;;;;;;;5056034;28;20033;-68
2023/06/22 03:10:56;;;;;;;9.10;7.30;;;;;;;;;;5053737;28;20796;-66
2023/06/22 03:13:21;;;;;;;8.32;7.22;;;;;;;;;;5062008;28;20037;-63
2023/06/22 03:15:47;;;;;;;10.30;7.65;;;;;;;;;;5044272;28;20131;-66
2023/06/22 03:18:12;;;;;;;10.77;7.23;;;;;;;;;;5036898;28;20398;-65
2023/06/22 03:20:37;;;;;;;9.97;7.13;;;;;;;;;;5051102;28;20343;-66
2023/06/22 03:23:03;;;;;;;10.15;7.18;;;;;;;;;;5066184;28;20072;-66
2023/06/22 03:25:28;;;;;;;9.07;7.43;;;;;;;;;;5067266;28;20053;-65
2023/06/22 03:27:53;;;;;;;9.27;6.97;;;;;;;;;;5064737;28;20044;-67
2023/06/22 03:30:18;;;;;;;9.00;6.93;;;;;;;;;;5063186;28;20040;-67
2023/06/22 03:32:43;;;;;;;9.23;7.00;;;;;;;;;;5063117;28;20280;-66
2023/06/22 03:35:09;;;;;;;10.03;7.57;;;;;;;;;;5062458;28;20028;-68
2023/06/22 03:37:34;;;;;;;8.90;6.80;;;;;;;;;;5038936;28;20299;-66
2023/06/22 03:39:59;;;;;;;9.83;6.73;;;;;;;;;;5068264;28;20425;-68
2023/06/22 03:42:25;;;;;;;9.70;6.90;;;;;;;;;;5075317;28;20956;-68
2023/06/22 03:44:50;;;;;;;8.63;6.97;;;;;;;;;;5056406;28;20525;-65
2023/06/22 03:47:15;;;;;;;10.53;7.70;;;;;;;;;;5061477;28;20037;-66
2023/06/22 03:49:41;;;;;;;12.20;7.38;;;;;;;;;;5064230;28;20285;-67
2023/06/22 03:52:06;;;;;;;10.53;7.40;;;;;;;;;;5063906;28;20418;-66
2023/06/22 03:54:31;;;;;;;9.52;7.57;;;;;;;;;;5048826;28;20334;-69
2023/06/22 03:56:57;;;;;;;9.55;7.80;;;;;;;;;;5056173;28;20498;-67
2023/06/22 03:59:22;;;;;;;11.27;7.75;;;;;;;;;;5051599;28;20118;-67
2023/06/22 04:01:47;;;;;;;9.63;7.90;;;;;;;;;;5039289;28;20515;-63
2023/06/22 04:04:13;;;;;;;9.50;7.63;;;;;;;;;;5056476;28;20278;-63
2023/06/22 04:06:38;;;;;;;10.00;8.07;;;;;;;;;;5061712;28;20283;-66
2023/06/22 04:09:03;;;;;;;9.52;7.50;;;;;;;;;;5074166;28;20278;-68
2023/06/22 04:11:28;;;;;;;11.77;8.07;;;;;;;;;;5061617;28;20058;-67
2023/06/22 04:13:53;;;;;;;11.30;7.70;;;;;;;;;;5058015;28;20135;-68
2023/06/22 04:16:19;;;;;;;10.63;7.80;;;;;;;;;;5065731;28;20068;-69
2023/06/22 04:18:44;;;;;;;10.50;7.72;;;;;;;;;;5073362;28;20058;-65
2023/06/22 04:21:10;;;;;;;10.88;8.40;;;;;;;;;;5060866;28;20024;-68
2023/06/22 04:23:35;;;;;;;11.85;8.73;;;;;;;;;;5055680;28;20513;-67
2023/06/22 04:26:00;;;;;;;10.17;8.83;;;;;;;;;;5059766;28;20479;-66
2023/06/22 04:28:26;;;;;;;10.25;8.10;;;;;;;;;;5055488;28;20299;-63
2023/06/22 04:30:51;;;;;;;14.18;8.65;;;;;;;;;;5061147;28;20333;-66
2023/06/22 04:33:16;;;;;;;9.48;8.05;;;;;;;;;;5060089;28;20143;-66
2023/06/22 04:35:41;;;;;;;11.33;9.10;;;;;;;;;;5032894;28;20074;-67
2023/06/22 04:38:07;;;;;;;11.70;9.07;;;;;;;;;;5054401;28;20395;-65
2023/06/22 04:40:32;;;;;;;10.00;8.47;;;;;;;;;;5053285;28;20364;-65
2023/06/22 04:42:57;;;;;;;11.30;8.50;;;;;;;;;;5037676;28;20296;-67
2023/06/22 04:45:23;;;;;;;14.67;8.77;;;;;;;;;;5057237;28;20317;-67
2023/06/22 04:47:48;;;;;;;11.95;8.75;;;;;;;;;;5053973;28;20965;-64
2023/06/22 04:50:13;;;;;;;11.60;8.77;;;;;;;;;;5053069;28;20032;-68
2023/06/22 04:52:39;;;;;;;12.63;8.80;;;;;;;;;;5053882;28;20025;-71
2023/06/22 04:55:04;;;;;;;22.77;16.27;;;;;;;;;;5045601;28;20047;-71
2023/06/22 04:57:33;;;;;;;13.48;10.15;;;;;;;;;;5052008;28;20513;-66
2023/06/22 05:00:11;;;;;;;12.93;10.10;;;;;;;;;;5053489;28;20036;-71
2023/06/22 05:02:36;;;;;;;10.98;9.18;;;;;;;;;;5036502;28;20506;-61
2023/06/22 05:05:06;;;;;;;12.75;9.90;;;;;;;;;;5053078;28;20133;-66
2023/06/22 05:07:31;;;;;;;11.43;9.15;;;;;;;;;;5054196;28;20044;-66
2023/06/22 05:09:57;;;;;;;13.32;9.35;;;;;;;;;;5058256;28;20503;-72
2023/06/22 05:12:22;;;;;;;10.27;8.63;;;;;;;;;;5037075;28;20035;-68
2023/06/22 05:14:47;;;;;;;12.93;9.30;;;;;;;;;;5062307;28;20297;-74
2023/06/22 05:17:13;;;;;;;11.30;8.52;;;;;;;;;;5056827;28;20572;-69
2023/06/22 05:19:39;;;;;;;10.07;8.30;;;;;;;;;;5054720;28;20040;-64
2023/06/22 05:22:06;;;;;;;11.00;8.80;;;;;;;;;;5045716;28;20051;-69
2023/06/22 05:24:31;;;;;;;11.07;8.68;;;;;;;;;;5063134;28;20032;-69
2023/06/22 05:26:56;;;;;;;10.83;9.17;;;;;;;;;;5057127;28;20031;-67
2023/06/22 05:29:22;;;;;;;11.98;8.13;;;;;;;;;;5064544;28;20293;-68
2023/06/22 05:31:47;;;;;;;10.73;8.88;;;;;;;;;;5060518;28;20068;-66
2023/06/22 05:34:13;;;;;;;11.52;8.90;;;;;;;;;;5055625;28;20045;-64
2023/06/22 05:36:38;;;;;;;13.98;8.80;;;;;;;;;;5059456;28;20052;-68
2023/06/22 05:39:11;;;;;;;12.13;8.60;;;;;;;;;;5065990;28;20033;-64
2023/06/22 05:41:36;;;;;;;9.65;8.40;;;;;;;;;;5069486;28;20384;-68
2023/06/22 05:44:01;;;;;;;9.53;7.90;;;;;;;;;;5052995;28;20179;-66
2023/06/22 05:46:27;;;;;;;11.52;8.15;;;;;;;;;;5046014;28;20051;-66
2023/06/22 05:48:52;;;;;;;11.03;8.47;;;;;;;;;;5041778;28;20052;-63
2023/06/22 05:51:17;;;;;;;11.70;8.33;;;;;;;;;;5065089;28;20707;-68
2023/06/22 05:53:44;;;;;;;12.80;9.03;;;;;;;;;;5066042;28;20443;-66
2023/06/22 05:56:09;;;;;;;11.55;8.77;;;;;;;;;;5060699;28;20191;-70
2023/06/22 05:58:35;;;;;;;10.90;8.77;;;;;;;;;;5061819;28;20115;-65
2023/06/22 06:01:00;;;;;;;13.45;10.30;;;;;;;;;;5069036;28;20307;-67
2023/06/22 06:03:28;;;;;;;15.10;10.38;;;;;;;;;;5058416;28;20036;-66
2023/06/22 06:05:53;;;;;;;11.55;9.60;;;;;;;;;;5069699;28;20399;-70
2023/06/22 06:08:19;;;;;;;13.32;9.95;;;;;;;;;;5059736;28;20090;-70
2023/06/22 06:10:44;;;;;;;14.10;9.87;;;;;;;;;;5062459;28;20098;-68
2023/06/22 06:13:09;;;;;;;12.83;9.63;;;;;;;;;;5063266;28;20279;-66
2023/06/22 06:15:34;;;;;;;15.83;10.00;;;;;;;;;;5057805;28;20064;-70
2023/06/22 06:18:00;;;;;;;11.50;9.32;;;;;;;;;;5032881;28;21012;-67
2023/06/22 06:20:26;;;;;;;11.30;9.90;;;;;;;;;;5032139;28;20131;-71
2023/06/22 06:22:51;;;;;;;11.48;9.35;;;;;;;;;;5051171;28;20041;-64
2023/06/22 06:25:16;;;;;;;11.20;8.60;;;;;;;;;;5050907;28;20041;-64
2023/06/22 06:27:44;;;;;;;12.40;8.80;;;;;;;;;;5052799;28;20077;-65
2023/06/22 06:30:10;;;;;;;9.45;8.30;;;;;;;;;;5055174;28;20391;-60
2023/06/22 06:32:35;;;;;;;9.75;8.07;;;;;;;;;;5062377;28;20071;-72
2023/06/22 06:35:01;;;;;;;10.33;8.20;;;;;;;;;;5024273;28;20173;-71
2023/06/22 06:37:26;;;;;;;10.60;8.70;;;;;;;;;;5064194;28;20314;-72
2023/06/22 06:39:51;;;;;;;13.07;9.43;;;;;;;;;;5047051;28;20043;-66
2023/06/22 06:42:18;;;;;;;11.10;8.03;;;;;;;;;;5061703;28;20842;-69
2023/06/22 06:44:43;;;;;;;11.82;8.85;;;;;;;;;;5062656;28;20395;-68
2023/06/22 06:47:08;;;;;;;11.77;8.63;;;;;;;;;;5060228;28;20052;-67
2023/06/22 06:49:34;;;;;;;13.40;9.07;;;;;;;;;;5064324;28;20656;-71
2023/06/22 06:51:59;;;;;;;11.80;8.90;;;;;;;;;;5055376;28;20272;-66
2023/06/22 06:54:24;;;;;;;13.53;9.03;;;;;;;;;;5066852;28;20044;-63
2023/06/22 06:56:49;;;;;;;11.23;9.23;;;;;;;;;;5074051;28;20086;-68
2023/06/22 06:59:15;;;;;;;10.25;9.15;;;;;;;;;;5065397;28;20286;-67
2023/06/22 07:01:40;;;;;;;13.18;9.38;;;;;;;;;;5047814;28;20101;-70
2023/06/22 07:04:06;;;;;;;10.25;8.50;;;;;;;;;;5068692;28;20052;-63
2023/06/22 07:06:33;;;;;;;9.85;8.77;;;;;;;;;;5071278;28;20100;-65
2023/06/22 07:08:58;;;;;;;11.63;9.25;;;;;;;;;;5070090;28;20044;-65
2023/06/22 07:11:23;;;;;;;12.80;9.13;;;;;;;;;;5085749;28;20021;-67
2023/06/22 07:13:48;;;;;;;12.37;8.90;;;;;;;;;;5071111;28;20334;-69
2023/06/22 07:16:14;;;;;;;12.57;8.97;;;;;;;;;;5067630;28;20052;-68
2023/06/22 07:18:39;;;;;;;11.50;9.15;;;;;;;;;;5058221;28;20312;-64
2023/06/22 07:21:06;;;;;;;10.63;8.30;;;;;;;;;;5072697;28;20088;-70
2023/06/22 07:23:32;;;;;;;11.27;8.98;;;;;;;;;;5065149;28;20562;-68
2023/06/22 07:25:57;;;;;;;10.30;7.97;;;;;;;;;;5071364;28;20099;-69
2023/06/22 07:28:22;;;;;;;10.70;8.57;;;;;;;;;;5075113;28;20711;-66
2023/06/22 07:30:47;;;;;;;11.17;8.47;;;;;;;;;;5068738;28;20470;-69
2023/06/22 07:33:12;;;;;;;10.80;8.27;;;;;;;;;;5057785;28;20410;-66
2023/06/22 07:35:38;;;;;;;10.18;8.75;;;;;;;;;;5069991;28;20413;-68
2023/06/22 07:38:03;;;;;;;11.33;8.27;;;;;;;;;;5065860;28;20477;-66
2023/06/22 07:40:28;;;;;;;10.63;8.48;;;;;;;;;;5069687;28;20020;-69
2023/06/22 07:42:54;;;;;;;11.13;8.63;;;;;;;;;;5068544;28;20025;-67
2023/06/22 07:45:19;;;;;;;11.82;7.90;;;;;;;;;;5061921;28;20036;-69
2023/06/22 07:47:45;;;;;;;10.97;8.50;;;;;;;;;;5066815;28;20024;-67
2023/06/22 07:50:10;;;;;;;10.17;7.97;;;;;;;;;;5067773;28;20353;-60
2023/06/22 07:52:35;;;;;;;12.50;8.77;;;;;;;;;;5061827;28;20291;-69
2023/06/22 07:55:02;;;;;;;10.73;8.48;;;;;;;;;;5068824;28;20044;-68
2023/06/22 07:57:33;;;;;;;12.75;8.35;;;;;;;;;;5048021;28;20045;-64
2023/06/22 07:59:59;;;;;;;9.75;8.20;;;;;;;;;;5065976;28;20094;-63
2023/06/22 08:02:24;;;;;;;9.48;8.02;;;;;;;;;;5035168;28;20112;-65
2023/06/22 08:04:49;;;;;;;10.90;7.78;;;;;;;;;;5053266;28;20175;-65
2023/06/22 08:07:15;;;;;;;10.83;8.33;;;;;;;;;;5055779;28;20051;-68
2023/06/22 08:09:41;;;;;;;10.48;7.90;;;;;;;;;;5020985;28;20789;-75
2023/06/22 08:12:07;;;;;;;9.75;7.85;;;;;;;;;;5035795;28;20029;-71
2023/06/22 08:14:36;;;;;;;11.25;8.07;;;;;;;;;;5054697;28;20387;-65
2023/06/22 08:17:01;;;;;;;11.55;8.82;;;;;;;;;;5053324;28;20052;-65
2023/06/22 08:19:26;;;;;;;11.87;8.40;;;;;;;;;;5040173;28;20033;-62
2023/06/22 08:21:51;;;;;;;12.07;7.90;;;;;;;;;;5053725;28;20665;-65
2023/06/22 08:24:17;;;;;;;10.27;8.20;;;;;;;;;;5054998;28;20326;-69
2023/06/22 08:26:42;;;;;;;9.60;8.27;;;;;;;;;;5054152;28;20299;-68
2023/06/22 08:29:07;;;;;;;10.17;8.20;;;;;;;;;;5053384;28;20295;-66
2023/06/22 08:31:35;;;;;;;10.00;7.80;;;;;;;;;;5054765;28;20115;-67
2023/06/22 08:34:00;;;;;;;9.50;7.95;;;;;;;;;;5034201;28;20627;-69
2023/06/22 08:36:28;;;;;;;8.60;7.70;;;;;;;;;;5054580;28;20028;-67
2023/06/22 08:38:54;;;;;;;9.35;8.35;;;;;;;;;;5044594;28;20362;-68
2023/06/22 08:41:19;;;;;;;10.60;8.15;;;;;;;;;;5040723;28;20113;-64
2023/06/22 08:43:44;;;;;;;9.70;8.25;;;;;;;;;;5055729;28;20104;-65
2023/06/22 08:46:10;;;;;;;9.57;7.93;;;;;;;;;;5035677;28;20047;-66
2023/06/22 08:48:35;;;;;;;9.68;8.48;;;;;;;;;;5042931;28;20376;-66
2023/06/22 08:51:01;;;;;;;10.85;8.45;;;;;;;;;;5055283;28;20037;-64
2023/06/22 08:53:26;;;;;;;9.37;8.03;;;;;;;;;;5041839;28;20032;-67
2023/06/22 08:55:51;;;;;;;10.93;8.60;;;;;;;;;;5053951;28;20393;-65
2023/06/22 08:58:18;;;;;;;9.80;7.97;;;;;;;;;;5053818;28;20381;-63
2023/06/22 09:00:43;;;;;;;10.27;8.15;;;;;;;;;;5054144;28;20040;-67
2023/06/22 09:03:08;;;;;;;10.02;8.20;;;;;;;;;;5052981;28;20039;-65
2023/06/22 09:05:33;;;;;;;10.53;8.47;;;;;;;;;;5054182;28;20070;-68
2023/06/22 09:07:59;;;;;;;9.43;8.30;;;;;;;;;;5049786;28;20037;-67
2023/06/22 09:10:24;;;;;;;9.50;8.20;;;;;;;;;;5068838;28;20278;-65
2023/06/22 09:12:50;;;;;;;11.55;8.18;;;;;;;;;;5043823;28;20381;-68
2023/06/22 09:15:15;;;;;;;10.23;8.40;;;;;;;;;;5059934;28;20059;-72
2023/06/22 09:17:41;;;;;;;9.90;7.90;;;;;;;;;;5052961;28;20154;-61
2023/06/22 09:20:07;;;;;;;11.93;8.70;;;;;;;;;;5043218;28;20093;-63
2023/06/22 09:22:33;;;;;;;10.55;8.65;;;;;;;;;;5059729;28;20036;-66
2023/06/22 09:24:59;;;;;;;8.85;7.95;;;;;;;;;;5065115;28;20081;-67
2023/06/22 09:27:25;;;;;;;9.57;7.97;;;;;;;;;;5048496;28;20187;-63
2023/06/22 09:29:50;;;;;;;12.20;8.25;;;;;;;;;;5042336;28;20114;-67
2023/06/22 09:32:15;;;;;;;9.67;8.10;;;;;;;;;;5057489;28;20364;-63
2023/06/22 09:34:40;;;;;;;11.17;8.17;;;;;;;;;;5064051;28;20279;-66
2023/06/22 09:37:05;;;;;;;8.87;7.53;;;;;;;;;;5055277;28;20319;-67
2023/06/22 09:39:31;;;;;;;8.70;7.80;;;;;;;;;;5049607;28;20762;-64
2023/06/22 09:41:58;;;;;;;8.80;7.70;;;;;;;;;;5050692;28;20291;-60
2023/06/22 09:44:23;;;;;;;8.00;7.20;;;;;;;;;;5045846;28;20029;-61
2023/06/22 09:46:48;;;;;;;8.70;6.97;;;;;;;;;;5065645;28;20059;-65
2023/06/22 09:49:13;;;;;;;9.02;8.10;;;;;;;;;;5066500;28;20040;-66
2023/06/22 09:51:38;;;;;;;8.20;6.93;;;;;;;;;;5065668;28;20469;-67
2023/06/22 09:54:04;;;;;;;8.73;7.83;;;;;;;;;;5066742;28;20371;-66
2023/06/22 09:56:30;;;;;;;11.20;7.40;;;;;;;;;;5067688;28;20457;-62
2023/06/22 09:58:55;;;;;;;8.00;7.20;;;;;;;;;;5067096;28;20282;-64
2023/06/22 10:01:21;;;;;;;8.48;7.38;;;;;;;;;;5066628;28;20040;-65
2023/06/22 10:03:46;;;;;;;8.10;6.90;;;;;;;;;;5053713;28;20503;-66
2023/06/22 10:06:12;;;;;;;9.60;7.80;;;;;;;;;;5063301;28;20181;-66
2023/06/22 10:08:37;;;;;;;9.37;7.43;;;;;;;;;;5065231;28;20037;-68
2023/06/22 10:11:05;;;;;;;8.60;7.03;;;;;;;;;;5069961;28;20606;-70
2023/06/22 10:13:30;;;;;;;8.80;7.75;;;;;;;;;;5061188;28;20283;-68
2023/06/22 10:15:56;;;;;;;9.33;7.50;;;;;;;;;;5054163;28;20047;-64
2023/06/22 10:18:21;;;;;;;10.63;7.50;;;;;;;;;;5062472;28;20341;-64
2023/06/22 10:20:53;;;;;;;8.67;7.27;;;;;;;;;;5061991;28;20068;-63
2023/06/22 10:23:18;;;;;;;9.05;7.20;;;;;;;;;;5065872;28;20514;-65
2023/06/22 10:25:43;;;;;;;8.57;7.05;;;;;;;;;;5046322;28;20137;-65
2023/06/22 10:28:09;;;;;;;8.30;7.13;;;;;;;;;;5065840;28;20517;-68
2023/06/22 10:30:34;;;;;;;10.17;7.97;;;;;;;;;;5064984;28;20494;-65
2023/06/22 10:32:59;;;;;;;9.00;7.67;;;;;;;;;;5042962;28;20303;-64
2023/06/22 10:35:24;;;;;;;11.57;8.30;;;;;;;;;;5056091;28;20094;-67
2023/06/22 10:37:50;;;;;;;9.83;7.47;;;;;;;;;;5050899;28;20115;-70
2023/06/22 10:40:16;;;;;;;8.88;7.65;;;;;;;;;;5048703;28;20040;-69
2023/06/22 10:42:41;;;;;;;9.00;7.75;;;;;;;;;;5052388;28;20029;-65
2023/06/22 10:45:07;;;;;;;10.65;8.07;;;;;;;;;;5049724;28;20142;-67
2023/06/22 10:47:33;;;;;;;9.93;7.70;;;;;;;;;;5052288;28;20045;-65
2023/06/22 10:49:58;;;;;;;9.60;7.93;;;;;;;;;;5063533;28;20114;-65
2023/06/22 10:52:23;;;;;;;9.83;8.20;;;;;;;;;;5045134;28;20044;-63
2023/06/22 10:54:48;;;;;;;10.00;7.70;;;;;;;;;;5069731;28;20037;-63
2023/06/22 10:57:13;;;;;;;9.33;7.80;;;;;;;;;;5063966;28;20135;-67
2023/06/22 10:59:39;;;;;;;8.77;7.83;;;;;;;;;;5063715;28;20502;-67
2023/06/22 11:02:04;;;;;;;9.38;7.78;;;;;;;;;;5054446;28;20439;-71
2023/06/22 11:04:29;;;;;;;10.35;8.20;;;;;;;;;;5045705;28;20115;-67
2023/06/22 11:06:56;;;;;;;9.53;7.97;;;;;;;;;;5058645;28;20028;-65
2023/06/22 11:09:21;;;;;;;9.25;8.05;;;;;;;;;;5064605;28;20286;-66
2023/06/22 11:11:47;;;;;;;9.37;7.90;;;;;;;;;;5063159;28;20029;-66
2023/06/22 11:14:12;;;;;;;9.57;7.70;;;;;;;;;;5064330;28;20374;-64
2023/06/22 11:16:37;;;;;;;9.70;8.00;;;;;;;;;;5056582;28;20052;-62
2023/06/22 11:19:04;;;;;;;10.07;7.87;;;;;;;;;;5049500;28;20044;-63
2023/06/22 11:21:29;;;;;;;9.07;7.68;;;;;;;;;;5049718;28;20048;-69
2023/06/22 11:23:54;;;;;;;9.33;7.87;;;;;;;;;;5050532;28;20040;-64
2023/06/22 11:26:21;;;;;;;8.57;7.67;;;;;;;;;;5052056;28;20044;-70
2023/06/22 11:28:46;;;;;;;8.70;7.72;;;;;;;;;;5041464;28;20313;-67
2023/06/22 11:31:11;;;;;;;9.27;8.23;;;;;;;;;;5014895;28;1169249;-62
2023/06/22 11:33:36;;;;;;;9.27;8.13;;;;;;;;;;5054121;28;20132;-70
2023/06/22 11:36:02;;;;;;;9.30;7.73;;;;;;;;;;5053787;28;20072;-67
2023/06/22 11:38:27;;;;;;;8.60;7.70;;;;;;;;;;5053367;28;20326;-68
2023/06/22 11:40:52;;;;;;;9.77;7.90;;;;;;;;;;5053117;28;20065;-65
2023/06/22 11:43:17;;;;;;;8.80;7.80;;;;;;;;;;5053919;28;20294;-63
2023/06/22 11:45:43;;;;;;;9.13;7.35;;;;;;;;;;5055372;28;20029;-69
2023/06/22 11:48:08;;;;;;;8.55;7.65;;;;;;;;;;5056643;28;20040;-68
2023/06/22 11:50:36;;;;;;;9.33;7.47;;;;;;;;;;5039758;28;20046;-64
2023/06/22 11:53:02;;;;;;;9.38;7.88;;;;;;;;;;5051758;28;20406;-66
2023/06/22 11:55:27;;;;;;;9.43;8.32;;;;;;;;;;5033364;28;20055;-66
2023/06/22 11:57:58;;;;;;;9.73;7.88;;;;;;;;;;5053118;28;20582;-77
2023/06/22 12:00:24;;;;;;;10.00;7.85;;;;;;;;;;5038239;28;20024;-75
2023/06/22 12:02:51;;;;;;;8.77;7.88;;;;;;;;;;5041944;28;20516;-64
2023/06/22 12:05:16;;;;;;;8.98;7.78;;;;;;;;;;5053446;28;20183;-67
2023/06/22 12:07:41;;;;;;;9.02;8.05;;;;;;;;;;5052824;28;20515;-66
2023/06/22 12:10:07;;;;;;;9.20;7.38;;;;;;;;;;5052973;28;20029;-65
2023/06/22 12:12:32;;;;;;;8.50;7.55;;;;;;;;;;5052520;28;20123;-65
2023/06/22 12:14:57;;;;;;;9.50;7.63;;;;;;;;;;5052685;28;20123;-65
2023/06/22 12:17:22;;;;;;;8.88;7.65;;;;;;;;;;5055248;28;20086;-66
2023/06/22 12:19:49;;;;;;;8.80;7.80;;;;;;;;;;5062580;28;20896;-66
2023/06/22 12:22:15;;;;;;;9.48;7.43;;;;;;;;;;5064282;28;20540;-67
2023/06/22 12:24:40;;;;;;;8.67;7.20;;;;;;;;;;5067276;28;20071;-68
2023/06/22 12:27:05;;;;;;;9.60;8.30;;;;;;;;;;5057177;28;20820;-74
2023/06/22 12:29:30;;;;;;;9.30;7.87;;;;;;;;;;5066709;28;20049;-61
2023/06/22 12:31:56;;;;;;;10.07;8.10;;;;;;;;;;5068829;28;20287;-68
2023/06/22 12:34:21;;;;;;;11.37;8.70;;;;;;;;;;5054653;28;20063;-60
2023/06/22 12:36:48;;;;;;;9.93;8.07;;;;;;;;;;5048653;28;20899;-64
2023/06/22 12:39:14;;;;;;;12.38;8.55;;;;;;;;;;5053054;28;20293;-61
2023/06/22 12:41:39;;;;;;;12.55;8.40;;;;;;;;;;5064371;28;20119;-70
2023/06/22 12:44:04;;;;;;;9.07;7.40;;;;;;;;;;5074421;28;20037;-69
2023/06/22 12:46:35;;;;;;;9.77;7.43;;;;;;;;;;5053274;28;20131;-68
2023/06/22 12:49:01;;;;;;;10.43;7.68;;;;;;;;;;5052897;28;20804;-65
2023/06/22 12:51:26;;;;;;;10.55;7.78;;;;;;;;;;5074401;28;20039;-69
2023/06/22 12:53:51;;;;;;;11.83;8.00;;;;;;;;;;5071868;28;20457;-67
2023/06/22 12:56:16;;;;;;;11.13;7.60;;;;;;;;;;5044719;28;20466;-67
2023/06/22 12:58:41;;;;;;;8.80;7.07;;;;;;;;;;5057661;28;20339;-66
2023/06/22 13:01:07;;;;;;;9.67;7.50;;;;;;;;;;5058020;28;20348;-65
2023/06/22 13:03:32;;;;;;;12.97;8.10;;;;;;;;;;5058687;28;20032;-68
2023/06/22 13:05:57;;;;;;;10.40;6.90;;;;;;;;;;5065520;28;20031;-68
2023/06/22 13:08:22;;;;;;;10.13;6.97;;;;;;;;;;5053141;28;20119;-68
2023/06/22 13:10:48;;;;;;;9.83;7.27;;;;;;;;;;5065289;28;20048;-67
2023/06/22 13:13:13;;;;;;;10.67;6.70;;;;;;;;;;5065497;28;20499;-71
2023/06/22 13:15:38;;;;;;;7.77;6.90;;;;;;;;;;5061620;28;20368;-73
2023/06/22 13:18:03;;;;;;;10.57;6.97;;;;;;;;;;5049791;28;20419;-75
2023/06/22 13:20:29;;;;;;;11.63;6.67;;;;;;;;;;5067333;28;20279;-75
2023/06/22 13:22:55;;;;;;;10.38;7.35;;;;;;;;;;5043048;28;20055;-73
2023/06/22 13:25:22;;;;;;;9.73;7.55;;;;;;;;;;5074950;28;20024;-73
2023/06/22 13:27:48;;;;;;;9.65;7.30;;;;;;;;;;5022433;28;20052;-67
2023/06/22 13:30:13;;;;;;;10.53;7.07;;;;;;;;;;5037122;28;20016;-72
2023/06/22 13:32:41;;;;;;;11.10;7.80;;;;;;;;;;5066432;28;20265;-69
2023/06/22 13:35:06;;;;;;;10.02;7.20;;;;;;;;;;5049402;28;20271;-65
2023/06/22 13:37:32;;;;;;;9.80;7.50;;;;;;;;;;5057351;28;20089;-73
2023/06/22 13:39:59;;;;;;;13.73;7.87;;;;;;;;;;5067363;28;20938;-72
2023/06/22 13:42:24;;;;;;;10.20;8.00;;;;;;;;;;5069824;28;20267;-73
2023/06/22 13:44:49;;;;;;;9.67;7.20;;;;;;;;;;5065516;28;20424;-76
2023/06/22 13:47:15;;;;;;;12.23;8.30;;;;;;;;;;5060823;28;20255;-72
2023/06/22 13:49:40;;;;;;;11.53;7.67;;;;;;;;;;5039598;28;20267;-74
2023/06/22 13:52:10;;;;;;;10.03;7.90;;;;;;;;;;5037934;28;20047;-78
2023/06/22 13:54:35;;;;;;;;;;;;;;;;;;5068674;28;20077;-75
2023/06/22 13:57:00;;;;;;;9.20;7.78;;;;;;;;;;5058634;28;19917;-70
2023/06/22 13:59:27;;;;;;;11.73;7.90;;;;;;;;;;5051395;28;20081;-70
2023/06/22 14:01:52;;;;;;;9.95;7.85;;;;;;;;;;5054872;28;20558;-69
2023/06/22 14:04:18;;;;;;;9.67;7.67;;;;;;;;;;5050422;28;20112;-80
2023/06/22 14:06:43;;;;;;;13.43;7.80;;;;;;;;;;5053608;28;20485;-75
2023/06/22 14:09:09;;;;;;;10.53;7.70;;;;;;;;;;5028081;28;20407;-78
2023/06/22 14:11:34;;;;;;;10.35;7.47;;;;;;;;;;5048072;28;20028;-63
2023/06/22 14:13:59;;;;;;;10.40;6.80;;;;;;;;;;5064232;28;20361;-65
2023/06/22 14:16:24;;;;;;;8.70;7.07;;;;;;;;;;5070715;28;20041;-67
2023/06/22 14:18:50;;;;;;;11.27;7.60;;;;;;;;;;5054716;28;20060;-69
2023/06/22 14:21:15;;;;;;;11.10;7.37;;;;;;;;;;5041090;28;20271;-68
2023/06/22 14:23:40;;;;;;;11.27;7.37;;;;;;;;;;5062290;28;20869;-70
2023/06/22 14:26:05;;;;;;;9.20;6.97;;;;;;;;;;5062371;28;20319;-65
2023/06/22 14:28:31;;;;;;;10.40;7.35;;;;;;;;;;5046506;28;20278;-67